sensor_id;sensor_type;location;lat;lon;timestamp;pressure;altitude;pressure_sealevel;temperature;humidity
80139;BME280;69467;59.842;17.604;2023-04-25T00:01:04;99955.09;;;2.22;82.88
80139;BME280;69467;59.842;17.604;2023-04-25T00:03:34;99947.13;;;2.27;82.49
80139;BME280;69467;59.842;17.604;2023-04-25T00:06:00;99943.38;;;2.28;82.45
80139;BME280;69467;59.842;17.604;2023-04-25T00:08:29;99938.59;;;2.30;82.33
80139;BME280;69467;59.842;17.604;2023-04-25T00:10:56;99944.59;;;2.32;82.27
80139;BME280;69467;59.842;17.604;2023-04-25T00:13:21;99937.56;;;2.31;82.54
80139;BME280;69467;59.842;17.604;2023-04-25T00:15:47;99931.31;;;2.31;82.24
80139;BME280;69467;59.842;17.604;2023-04-25T00:18:13;99936.72;;;2.31;82.12
80139;BME280;69467;59.842;17.604;2023-04-25T00:20:39;99936.34;;;2.27;82.93
80139;BME280;69467;59.842;17.604;2023-04-25T00:23:05;99932.81;;;2.27;82.52
80139;BME280;69467;59.842;17.604;2023-04-25T00:25:30;99930.34;;;2.25;83.27
80139;BME280;69467;59.842;17.604;2023-04-25T00:27:56;99931.84;;;2.21;83.62
80139;BME280;69467;59.842;17.604;2023-04-25T00:30:21;99925.84;;;2.19;83.66
80139;BME280;69467;59.842;17.604;2023-04-25T00:32:47;99929.38;;;2.19;83.27
80139;BME280;69467;59.842;17.604;2023-04-25T00:35:14;99931.84;;;2.21;83.21
80139;BME280;69467;59.842;17.604;2023-04-25T00:37:39;99923.53;;;2.22;83.18
80139;BME280;69467;59.842;17.604;2023-04-25T00:40:06;99931.63;;;2.22;83.60
80139;BME280;69467;59.842;17.604;2023-04-25T00:42:31;99916.84;;;2.25;83.17
80139;BME280;69467;59.842;17.604;2023-04-25T00:44:58;99914.28;;;2.30;83.43
80139;BME280;69467;59.842;17.604;2023-04-25T00:47:25;99911.34;;;2.32;83.65
80139;BME280;69467;59.842;17.604;2023-04-25T00:49:50;99908.03;;;2.30;84.63
80139;BME280;69467;59.842;17.604;2023-04-25T00:52:15;99900.78;;;2.30;84.13
80139;BME280;69467;59.842;17.604;2023-04-25T00:54:41;99896.41;;;2.29;84.08
80139;BME280;69467;59.842;17.604;2023-04-25T00:57:06;99891.81;;;2.30;83.97
80139;BME280;69467;59.842;17.604;2023-04-25T00:59:32;99887.69;;;2.27;84.12
80139;BME280;69467;59.842;17.604;2023-04-25T01:01:58;99893.72;;;2.29;84.28
80139;BME280;69467;59.842;17.604;2023-04-25T01:04:26;99883.38;;;2.26;84.92
80139;BME280;69467;59.842;17.604;2023-04-25T01:06:52;99892.91;;;2.29;84.84
80139;BME280;69467;59.842;17.604;2023-04-25T01:09:18;99890.41;;;2.27;85.35
80139;BME280;69467;59.842;17.604;2023-04-25T01:11:44;99887.69;;;2.27;85.20
80139;BME280;69467;59.842;17.604;2023-04-25T01:14:10;99883.59;;;2.24;84.88
80139;BME280;69467;59.842;17.604;2023-04-25T01:16:35;99881.13;;;2.23;85.36
80139;BME280;69467;59.842;17.604;2023-04-25T01:19:03;99880.31;;;2.22;85.79
80139;BME280;69467;59.842;17.604;2023-04-25T01:21:30;99878.28;;;2.18;85.29
80139;BME280;69467;59.842;17.604;2023-04-25T01:23:56;99873.69;;;2.18;86.64
80139;BME280;69467;59.842;17.604;2023-04-25T01:26:22;99869.56;;;2.16;86.00
80139;BME280;69467;59.842;17.604;2023-04-25T01:28:48;99868.38;;;2.12;86.90
80139;BME280;69467;59.842;17.604;2023-04-25T01:31:14;99866.97;;;2.09;86.75
80139;BME280;69467;59.842;17.604;2023-04-25T01:33:40;99868.25;;;2.06;87.02
80139;BME280;69467;59.842;17.604;2023-04-25T01:36:06;99871.16;;;2.05;86.70
80139;BME280;69467;59.842;17.604;2023-04-25T01:38:32;99868.69;;;2.03;86.59
80139;BME280;69467;59.842;17.604;2023-04-25T01:40:57;99859.53;;;2.04;86.57
80139;BME280;69467;59.842;17.604;2023-04-25T01:43:23;99857.66;;;2.05;87.17
80139;BME280;69467;59.842;17.604;2023-04-25T01:45:49;99870.34;;;2.04;86.92
80139;BME280;69467;59.842;17.604;2023-04-25T01:48:15;99867.41;;;2.06;86.73
80139;BME280;69467;59.842;17.604;2023-04-25T01:50:41;99859.91;;;2.08;87.20
80139;BME280;69467;59.842;17.604;2023-04-25T01:53:09;99857.44;;;2.06;87.14
80139;BME280;69467;59.842;17.604;2023-04-25T01:55:34;99847.69;;;2.05;87.23
80139;BME280;69467;59.842;17.604;2023-04-25T01:58:02;99838.53;;;2.06;87.10
80139;BME280;69467;59.842;17.604;2023-04-25T02:00:28;99834.78;;;2.07;86.93
80139;BME280;69467;59.842;17.604;2023-04-25T02:02:53;99826.69;;;2.07;87.23
80139;BME280;69467;59.842;17.604;2023-04-25T02:05:19;99827.25;;;2.09;87.42
80139;BME280;69467;59.842;17.604;2023-04-25T02:07:48;99822.31;;;2.06;86.83
80139;BME280;69467;59.842;17.604;2023-04-25T02:10:14;99816.94;;;2.06;87.54
80139;BME280;69467;59.842;17.604;2023-04-25T02:12:39;99809.25;;;2.03;88.20
80139;BME280;69467;59.842;17.604;2023-04-25T02:15:05;99805.75;;;2.03;87.76
80139;BME280;69467;59.842;17.604;2023-04-25T02:17:31;99794.09;;;2.02;87.27
80139;BME280;69467;59.842;17.604;2023-04-25T02:19:56;99791.19;;;2.04;87.20
80139;BME280;69467;59.842;17.604;2023-04-25T02:22:22;99786.63;;;2.04;87.41
80139;BME280;69467;59.842;17.604;2023-04-25T02:24:47;99790.13;;;2.05;87.26
80139;BME280;69467;59.842;17.604;2023-04-25T02:27:13;99775.00;;;2.04;87.60
80139;BME280;69467;59.842;17.604;2023-04-25T02:29:38;99775.19;;;2.02;87.33
80139;BME280;69467;59.842;17.604;2023-04-25T02:32:04;99766.72;;;1.99;87.47
80139;BME280;69467;59.842;17.604;2023-04-25T02:34:29;99762.19;;;1.99;87.59
80139;BME280;69467;59.842;17.604;2023-04-25T02:36:55;99757.81;;;1.98;87.90
80139;BME280;69467;59.842;17.604;2023-04-25T02:39:20;99758.06;;;1.97;87.80
80139;BME280;69467;59.842;17.604;2023-04-25T02:41:47;99753.47;;;1.97;88.05
80139;BME280;69467;59.842;17.604;2023-04-25T02:44:12;99749.34;;;1.95;88.21
80139;BME280;69467;59.842;17.604;2023-04-25T02:46:38;99745.25;;;1.92;88.23
80139;BME280;69467;59.842;17.604;2023-04-25T02:49:03;99753.09;;;1.93;88.19
80139;BME280;69467;59.842;17.604;2023-04-25T02:51:28;99745.59;;;1.96;88.07
80139;BME280;69467;59.842;17.604;2023-04-25T02:53:55;99751.00;;;1.96;88.32
80139;BME280;69467;59.842;17.604;2023-04-25T02:56:20;99742.91;;;1.96;88.22
80139;BME280;69467;59.842;17.604;2023-04-25T02:58:46;99748.66;;;1.99;88.42
80139;BME280;69467;59.842;17.604;2023-04-25T03:01:11;99753.22;;;1.99;88.48
80139;BME280;69467;59.842;17.604;2023-04-25T03:03:37;99763.47;;;1.97;88.63
80139;BME280;69467;59.842;17.604;2023-04-25T03:06:02;99749.34;;;1.95;88.50
80139;BME280;69467;59.842;17.604;2023-04-25T03:08:28;99754.75;;;1.95;88.61
80139;BME280;69467;59.842;17.604;2023-04-25T03:10:58;99747.47;;;1.95;88.56
80139;BME280;69467;59.842;17.604;2023-04-25T03:13:23;99745.25;;;1.92;89.21
80139;BME280;69467;59.842;17.604;2023-04-25T03:15:49;99734.44;;;1.92;88.74
80139;BME280;69467;59.842;17.604;2023-04-25T03:18:14;99732.34;;;1.94;88.73
80139;BME280;69467;59.842;17.604;2023-04-25T03:20:40;99726.09;;;1.93;88.89
80139;BME280;69467;59.842;17.604;2023-04-25T03:23:07;99733.97;;;1.95;88.70
80139;BME280;69467;59.842;17.604;2023-04-25T03:25:32;99729.63;;;1.94;88.72
80139;BME280;69467;59.842;17.604;2023-04-25T03:27:57;99728.56;;;1.95;89.06
80139;BME280;69467;59.842;17.604;2023-04-25T03:30:23;99734.19;;;1.93;89.20
80139;BME280;69467;59.842;17.604;2023-04-25T03:32:48;99722.59;;;1.93;89.18
80139;BME280;69467;59.842;17.604;2023-04-25T03:35:14;99712.84;;;1.92;89.37
80139;BME280;69467;59.842;17.604;2023-04-25T03:37:39;99707.44;;;1.92;89.42
80139;BME280;69467;59.842;17.604;2023-04-25T03:40:06;99712.84;;;1.92;89.36
80139;BME280;69467;59.842;17.604;2023-04-25T03:42:31;99698.72;;;1.90;89.81
80139;BME280;69467;59.842;17.604;2023-04-25T03:44:57;99682.53;;;1.90;89.23
80139;BME280;69467;59.842;17.604;2023-04-25T03:47:22;99682.53;;;1.90;89.30
80139;BME280;69467;59.842;17.604;2023-04-25T03:49:48;99671.97;;;1.88;89.29
80139;BME280;69467;59.842;17.604;2023-04-25T03:52:14;99663.63;;;1.90;89.74
80139;BME280;69467;59.842;17.604;2023-04-25T03:54:40;99653.66;;;1.90;89.54
80139;BME280;69467;59.842;17.604;2023-04-25T03:57:05;99649.91;;;1.91;89.69
80139;BME280;69467;59.842;17.604;2023-04-25T03:59:30;99639.69;;;1.93;89.73
80139;BME280;69467;59.842;17.604;2023-04-25T04:01:56;99645.94;;;1.94;89.71
80139;BME280;69467;59.842;17.604;2023-04-25T04:04:22;99645.94;;;1.94;89.54
80139;BME280;69467;59.842;17.604;2023-04-25T04:06:47;99643.00;;;1.96;89.32
80139;BME280;69467;59.842;17.604;2023-04-25T04:09:12;99634.66;;;1.97;89.70
80139;BME280;69467;59.842;17.604;2023-04-25T04:11:38;99636.31;;;1.98;89.35
80139;BME280;69467;59.842;17.604;2023-04-25T04:14:07;99633.38;;;2.00;89.83
80139;BME280;69467;59.842;17.604;2023-04-25T04:16:33;99634.19;;;2.00;89.56
80139;BME280;69467;59.842;17.604;2023-04-25T04:18:58;99629.63;;;2.01;89.67
80139;BME280;69467;59.842;17.604;2023-04-25T04:21:24;99633.38;;;2.00;89.53
80139;BME280;69467;59.842;17.604;2023-04-25T04:23:49;99635.84;;;2.01;89.26
80139;BME280;69467;59.842;17.604;2023-04-25T04:26:14;99636.66;;;2.02;89.36
80139;BME280;69467;59.842;17.604;2023-04-25T04:28:43;99642.06;;;2.02;88.99
80139;BME280;69467;59.842;17.604;2023-04-25T04:31:10;99650.16;;;2.02;88.99
80139;BME280;69467;59.842;17.604;2023-04-25T04:33:35;99640.19;;;2.02;89.00
80139;BME280;69467;59.842;17.604;2023-04-25T04:36:02;99650.97;;;2.02;88.72
80139;BME280;69467;59.842;17.604;2023-04-25T04:38:28;99655.31;;;2.03;88.74
80139;BME280;69467;59.842;17.604;2023-04-25T04:40:54;99659.22;;;2.07;88.85
80139;BME280;69467;59.842;17.604;2023-04-25T04:43:19;99655.94;;;2.05;88.80
80139;BME280;69467;59.842;17.604;2023-04-25T04:45:45;99654.88;;;2.06;88.67
80139;BME280;69467;59.842;17.604;2023-04-25T04:48:10;99656.75;;;2.06;88.57
80139;BME280;69467;59.842;17.604;2023-04-25T04:50:39;99638.69;;;2.06;88.54
80139;BME280;69467;59.842;17.604;2023-04-25T04:53:05;99632.44;;;2.06;88.96
80139;BME280;69467;59.842;17.604;2023-04-25T04:55:31;99635.13;;;2.06;88.92
80139;BME280;69467;59.842;17.604;2023-04-25T04:57:56;99640.31;;;2.07;88.86
80139;BME280;69467;59.842;17.604;2023-04-25T05:00:21;99638.44;;;2.08;88.93
80139;BME280;69467;59.842;17.604;2023-04-25T05:02:47;99639.84;;;2.11;88.88
80139;BME280;69467;59.842;17.604;2023-04-25T05:05:13;99637.38;;;2.09;88.99
80139;BME280;69467;59.842;17.604;2023-04-25T05:07:38;99635.25;;;2.11;88.87
80139;BME280;69467;59.842;17.604;2023-04-25T05:10:04;99643.72;;;2.15;89.01
80139;BME280;69467;59.842;17.604;2023-04-25T05:12:30;99635.59;;;2.15;88.95
80139;BME280;69467;59.842;17.604;2023-04-25T05:14:55;99632.69;;;2.16;88.78
80139;BME280;69467;59.842;17.604;2023-04-25T05:17:21;99634.00;;;2.14;88.93
80139;BME280;69467;59.842;17.604;2023-04-25T05:19:46;99630.81;;;2.17;88.95
80139;BME280;69467;59.842;17.604;2023-04-25T05:22:11;99617.06;;;2.18;88.75
80139;BME280;69467;59.842;17.604;2023-04-25T05:24:37;99607.91;;;2.19;89.25
80139;BME280;69467;59.842;17.604;2023-04-25T05:27:02;99613.06;;;2.21;89.16
80139;BME280;69467;59.842;17.604;2023-04-25T05:29:28;99618.00;;;2.24;89.13
80139;BME280;69467;59.842;17.604;2023-04-25T05:31:53;99620.13;;;2.22;89.74
80139;BME280;69467;59.842;17.604;2023-04-25T05:34:19;99617.53;;;2.27;89.71
80139;BME280;69467;59.842;17.604;2023-04-25T05:36:45;99615.66;;;2.28;89.76
80139;BME280;69467;59.842;17.604;2023-04-25T05:39:14;99615.19;;;2.31;89.44
80139;BME280;69467;59.842;17.604;2023-04-25T05:41:39;99612.28;;;2.32;89.38
80139;BME280;69467;59.842;17.604;2023-04-25T05:44:05;99609.09;;;2.35;89.43
80139;BME280;69467;59.842;17.604;2023-04-25T05:46:30;99600.72;;;2.37;89.74
80139;BME280;69467;59.842;17.604;2023-04-25T05:48:56;99598.28;;;2.35;89.69
80139;BME280;69467;59.842;17.604;2023-04-25T05:51:21;99596.28;;;2.31;90.59
80139;BME280;69467;59.842;17.604;2023-04-25T05:53:47;99596.50;;;2.29;90.78
80139;BME280;69467;59.842;17.604;2023-04-25T05:56:12;99600.38;;;2.33;90.70
80139;BME280;69467;59.842;17.604;2023-04-25T05:58:38;99592.88;;;2.35;90.38
80139;BME280;69467;59.842;17.604;2023-04-25T06:01:03;99585.38;;;2.37;90.27
80139;BME280;69467;59.842;17.604;2023-04-25T06:03:29;99584.31;;;2.38;91.12
80139;BME280;69467;59.842;17.604;2023-04-25T06:05:55;99595.22;;;2.44;90.95
80139;BME280;69467;59.842;17.604;2023-04-25T06:08:20;99607.19;;;2.48;90.52
80139;BME280;69467;59.842;17.604;2023-04-25T06:10:46;99602.38;;;2.50;90.37
80139;BME280;69467;59.842;17.604;2023-04-25T06:13:11;99596.75;;;2.51;90.33
80139;BME280;69467;59.842;17.604;2023-04-25T06:15:37;99594.97;;;2.57;90.68
80139;BME280;69467;59.842;17.604;2023-04-25T06:18:02;99599.09;;;2.60;90.21
80139;BME280;69467;59.842;17.604;2023-04-25T06:20:27;99581.81;;;2.61;90.31
80139;BME280;69467;59.842;17.604;2023-04-25T06:22:53;99579.91;;;2.61;90.25
80139;BME280;69467;59.842;17.604;2023-04-25T06:25:18;99580.97;;;2.60;90.79
80139;BME280;69467;59.842;17.604;2023-04-25T06:27:44;99583.94;;;2.58;90.47
80139;BME280;69467;59.842;17.604;2023-04-25T06:30:10;99589.34;;;2.58;90.65
80139;BME280;69467;59.842;17.604;2023-04-25T06:32:37;99579.13;;;2.61;90.51
80139;BME280;69467;59.842;17.604;2023-04-25T06:35:03;99572.88;;;2.60;90.79
80139;BME280;69467;59.842;17.604;2023-04-25T06:37:29;99584.28;;;2.62;90.76
80139;BME280;69467;59.842;17.604;2023-04-25T06:39:54;99575.69;;;2.65;90.67
80139;BME280;69467;59.842;17.604;2023-04-25T06:42:20;99577.91;;;2.68;90.57
80139;BME280;69467;59.842;17.604;2023-04-25T06:44:45;99570.41;;;2.70;90.42
80139;BME280;69467;59.842;17.604;2023-04-25T06:47:10;99577.44;;;2.71;90.19
80139;BME280;69467;59.842;17.604;2023-04-25T06:49:36;99583.66;;;2.72;90.54
80139;BME280;69467;59.842;17.604;2023-04-25T06:52:02;99578.03;;;2.73;90.24
80139;BME280;69467;59.842;17.604;2023-04-25T06:54:28;99581.78;;;2.72;90.25
80139;BME280;69467;59.842;17.604;2023-04-25T06:56:55;99578.81;;;2.74;90.21
80139;BME280;69467;59.842;17.604;2023-04-25T06:59:20;99572.63;;;2.73;90.57
80139;BME280;69467;59.842;17.604;2023-04-25T07:01:46;99572.00;;;2.71;90.42
80139;BME280;69467;59.842;17.604;2023-04-25T07:04:11;99569.09;;;2.73;90.27
80139;BME280;69467;59.842;17.604;2023-04-25T07:06:37;99571.56;;;2.74;90.55
80139;BME280;69467;59.842;17.604;2023-04-25T07:09:10;99567.56;;;2.77;90.63
80139;BME280;69467;59.842;17.604;2023-04-25T07:11:36;99566.50;;;2.78;90.62
80139;BME280;69467;59.842;17.604;2023-04-25T07:14:01;99565.44;;;2.79;90.65
80139;BME280;69467;59.842;17.604;2023-04-25T07:16:27;99565.19;;;2.81;90.72
80139;BME280;69467;59.842;17.604;2023-04-25T07:18:52;99556.84;;;2.82;90.88
80139;BME280;69467;59.842;17.604;2023-04-25T07:21:18;99565.28;;;2.86;90.79
80139;BME280;69467;59.842;17.604;2023-04-25T07:23:43;99559.63;;;2.87;91.05
80139;BME280;69467;59.842;17.604;2023-04-25T07:26:09;99563.19;;;2.88;91.12
80139;BME280;69467;59.842;17.604;2023-04-25T07:28:34;99570.22;;;2.89;91.07
80139;BME280;69467;59.842;17.604;2023-04-25T07:31:00;99565.63;;;2.89;90.98
80139;BME280;69467;59.842;17.604;2023-04-25T07:33:25;99561.38;;;2.94;90.73
80139;BME280;69467;59.842;17.604;2023-04-25T07:35:51;99555.25;;;2.98;90.76
80139;BME280;69467;59.842;17.604;2023-04-25T07:38:17;99568.88;;;3.03;90.98
80139;BME280;69467;59.842;17.604;2023-04-25T07:40:42;99583.25;;;3.04;90.67
80139;BME280;69467;59.842;17.604;2023-04-25T07:43:08;99584.28;;;3.03;90.85
80139;BME280;69467;59.842;17.604;2023-04-25T07:45:33;99584.63;;;3.06;90.68
80139;BME280;69467;59.842;17.604;2023-04-25T07:47:58;99573.31;;;3.10;90.65
80139;BME280;69467;59.842;17.604;2023-04-25T07:50:24;99575.06;;;3.16;90.55
80139;BME280;69467;59.842;17.604;2023-04-25T07:52:49;99580.56;;;3.21;90.44
80139;BME280;69467;59.842;17.604;2023-04-25T07:55:15;99584.44;;;3.25;90.57
80139;BME280;69467;59.842;17.604;2023-04-25T07:57:41;99579.59;;;3.27;90.54
80139;BME280;69467;59.842;17.604;2023-04-25T08:00:07;99582.41;;;3.32;90.30
80139;BME280;69467;59.842;17.604;2023-04-25T08:02:35;99579.81;;;3.37;90.22
80139;BME280;69467;59.842;17.604;2023-04-25T08:05:01;99574.13;;;3.39;90.08
80139;BME280;69467;59.842;17.604;2023-04-25T08:07:27;99587.19;;;3.42;90.00
80139;BME280;69467;59.842;17.604;2023-04-25T08:09:52;99596.13;;;3.43;90.00
80139;BME280;69467;59.842;17.604;2023-04-25T08:12:18;99588.59;;;3.45;90.00
80139;BME280;69467;59.842;17.604;2023-04-25T08:14:43;99591.66;;;3.48;89.75
80139;BME280;69467;59.842;17.604;2023-04-25T08:17:09;99583.88;;;3.52;89.83
80139;BME280;69467;59.842;17.604;2023-04-25T08:19:35;99588.78;;;3.55;89.61
80139;BME280;69467;59.842;17.604;2023-04-25T08:22:00;99599.44;;;3.62;89.54
80139;BME280;69467;59.842;17.604;2023-04-25T08:24:26;99592.16;;;3.62;89.47
80139;BME280;69467;59.842;17.604;2023-04-25T08:26:51;99597.91;;;3.66;89.51
80139;BME280;69467;59.842;17.604;2023-04-25T08:29:17;99594.47;;;3.70;89.34
80139;BME280;69467;59.842;17.604;2023-04-25T08:31:42;99597.72;;;3.73;89.20
80139;BME280;69467;59.842;17.604;2023-04-25T08:34:08;99602.69;;;3.76;88.83
80139;BME280;69467;59.842;17.604;2023-04-25T08:36:33;99601.69;;;3.82;88.78
80139;BME280;69467;59.842;17.604;2023-04-25T08:38:58;99591.75;;;3.87;88.62
80139;BME280;69467;59.842;17.604;2023-04-25T08:41:25;99593.97;;;3.91;88.80
80139;BME280;69467;59.842;17.604;2023-04-25T08:43:51;99598.66;;;3.95;88.90
80139;BME280;69467;59.842;17.604;2023-04-25T08:46:19;99597.91;;;4.00;88.64
80139;BME280;69467;59.842;17.604;2023-04-25T08:48:46;99596.38;;;4.04;88.48
80139;BME280;69467;59.842;17.604;2023-04-25T08:51:20;99596.69;;;4.08;88.71
80139;BME280;69467;59.842;17.604;2023-04-25T08:53:49;99603.25;;;4.12;88.65
80139;BME280;69467;59.842;17.604;2023-04-25T08:56:16;99604.91;;;4.13;88.76
80139;BME280;69467;59.842;17.604;2023-04-25T08:58:43;99601.34;;;4.12;88.58
80139;BME280;69467;59.842;17.604;2023-04-25T09:01:11;99602.78;;;4.15;88.50
80139;BME280;69467;59.842;17.604;2023-04-25T09:03:36;99616.41;;;4.20;88.39
80139;BME280;69467;59.842;17.604;2023-04-25T09:06:02;99614.25;;;4.22;88.13
80139;BME280;69467;59.842;17.604;2023-04-25T09:08:27;99610.22;;;4.25;87.94
80139;BME280;69467;59.842;17.604;2023-04-25T09:10:52;99614.34;;;4.27;88.02
80139;BME280;69467;59.842;17.604;2023-04-25T09:13:25;99614.09;;;4.29;87.94
80139;BME280;69467;59.842;17.604;2023-04-25T09:15:53;99607.59;;;4.30;88.08
80139;BME280;69467;59.842;17.604;2023-04-25T09:18:32;99614.75;;;4.36;87.55
80139;BME280;69467;59.842;17.604;2023-04-25T09:21:10;99609.66;;;4.40;87.25
80139;BME280;69467;59.842;17.604;2023-04-25T09:23:44;99613.56;;;4.49;87.19
80139;BME280;69467;59.842;17.604;2023-04-25T09:26:14;99617.91;;;4.50;86.93
80139;BME280;69467;59.842;17.604;2023-04-25T09:28:40;99622.59;;;4.55;86.96
80139;BME280;69467;59.842;17.604;2023-04-25T09:31:09;99622.94;;;4.58;86.65
80139;BME280;69467;59.842;17.604;2023-04-25T09:33:36;99624.06;;;4.62;86.39
80139;BME280;69467;59.842;17.604;2023-04-25T09:36:03;99631.72;;;4.65;86.33
80139;BME280;69467;59.842;17.604;2023-04-25T09:38:30;99630.94;;;4.70;86.47
80139;BME280;69467;59.842;17.604;2023-04-25T09:40:56;99633.91;;;4.68;86.09
80139;BME280;69467;59.842;17.604;2023-04-25T09:43:22;99633.97;;;4.74;86.18
80139;BME280;69467;59.842;17.604;2023-04-25T09:45:49;99638.66;;;4.78;86.14
80139;BME280;69467;59.842;17.604;2023-04-25T09:48:20;99634.34;;;4.82;85.82
80139;BME280;69467;59.842;17.604;2023-04-25T09:51:10;99635.19;;;4.83;85.76
80139;BME280;69467;59.842;17.604;2023-04-25T09:53:39;99638.47;;;4.85;85.73
80139;BME280;69467;59.842;17.604;2023-04-25T09:56:06;99646.19;;;4.93;85.33
80139;BME280;69467;59.842;17.604;2023-04-25T09:58:33;99634.25;;;4.94;85.20
80139;BME280;69467;59.842;17.604;2023-04-25T10:01:06;99642.72;;;4.98;85.23
80139;BME280;69467;59.842;17.604;2023-04-25T10:03:34;99637.16;;;5.10;85.42
80139;BME280;69467;59.842;17.604;2023-04-25T10:06:02;99638.03;;;5.15;84.76
80139;BME280;69467;59.842;17.604;2023-04-25T10:08:35;99635.13;;;5.22;84.21
80139;BME280;69467;59.842;17.604;2023-04-25T10:11:03;99630.28;;;5.24;84.04
80139;BME280;69467;59.842;17.604;2023-04-25T10:13:30;99633.03;;;5.29;84.67
80139;BME280;69467;59.842;17.604;2023-04-25T10:15:58;99634.19;;;5.34;84.45
80139;BME280;69467;59.842;17.604;2023-04-25T10:18:25;99643.19;;;5.39;84.46
80139;BME280;69467;59.842;17.604;2023-04-25T10:20:54;99637.28;;;5.42;84.50
80139;BME280;69467;59.842;17.604;2023-04-25T10:23:20;99646.81;;;5.45;84.40
80139;BME280;69467;59.842;17.604;2023-04-25T10:25:45;99652.03;;;5.52;84.21
80139;BME280;69467;59.842;17.604;2023-04-25T10:28:11;99645.56;;;5.58;84.38
80139;BME280;69467;59.842;17.604;2023-04-25T10:30:36;99644.00;;;5.62;84.12
80139;BME280;69467;59.842;17.604;2023-04-25T10:33:16;99657.59;;;5.62;83.65
80139;BME280;69467;59.842;17.604;2023-04-25T10:35:42;99657.28;;;5.58;83.46
80139;BME280;69467;59.842;17.604;2023-04-25T10:38:11;99659.72;;;5.60;83.17
80139;BME280;69467;59.842;17.604;2023-04-25T10:40:37;99659.53;;;5.44;83.40
80139;BME280;69467;59.842;17.604;2023-04-25T10:45:56;99661.31;;;5.56;83.51
80139;BME280;69467;59.842;17.604;2023-04-25T10:48:26;99665.47;;;5.63;83.49
80139;BME280;69467;59.842;17.604;2023-04-25T10:51:11;99661.88;;;5.58;84.70
80139;BME280;69467;59.842;17.604;2023-04-25T10:53:37;99659.50;;;5.67;83.91
80139;BME280;69467;59.842;17.604;2023-04-25T10:56:10;99661.09;;;5.62;83.70
80139;BME280;69467;59.842;17.604;2023-04-25T10:58:35;99660.41;;;5.72;83.82
80139;BME280;69467;59.842;17.604;2023-04-25T11:01:01;99662.91;;;5.79;83.86
80139;BME280;69467;59.842;17.604;2023-04-25T11:03:27;99656.97;;;5.82;83.32
80139;BME280;69467;59.842;17.604;2023-04-25T11:05:52;99661.88;;;5.85;83.39
80139;BME280;69467;59.842;17.604;2023-04-25T11:08:30;99669.25;;;5.90;83.10
80139;BME280;69467;59.842;17.604;2023-04-25T11:11:00;99670.31;;;5.89;83.22
80139;BME280;69467;59.842;17.604;2023-04-25T11:13:29;99665.41;;;5.86;83.80
80139;BME280;69467;59.842;17.604;2023-04-25T11:15:55;99664.44;;;5.97;83.51
80139;BME280;69467;59.842;17.604;2023-04-25T11:18:21;99670.78;;;6.03;83.07
80139;BME280;69467;59.842;17.604;2023-04-25T11:20:47;99664.03;;;6.10;82.97
80139;BME280;69467;59.842;17.604;2023-04-25T11:23:13;99668.41;;;6.11;82.15
80139;BME280;69467;59.842;17.604;2023-04-25T11:25:40;99666.50;;;6.12;81.82
80139;BME280;69467;59.842;17.604;2023-04-25T11:28:06;99672.50;;;6.14;82.04
80139;BME280;69467;59.842;17.604;2023-04-25T11:30:31;99674.47;;;6.19;81.74
80139;BME280;69467;59.842;17.604;2023-04-25T11:32:57;99670.41;;;6.21;81.91
80139;BME280;69467;59.842;17.604;2023-04-25T11:35:22;99676.94;;;6.25;81.61
80139;BME280;69467;59.842;17.604;2023-04-25T11:37:48;99680.78;;;6.29;81.83
80139;BME280;69467;59.842;17.604;2023-04-25T11:40:14;99674.88;;;6.38;81.42
80139;BME280;69467;59.842;17.604;2023-04-25T11:42:43;99667.00;;;6.41;81.48
80139;BME280;69467;59.842;17.604;2023-04-25T11:45:09;99676.03;;;6.47;81.09
80139;BME280;69467;59.842;17.604;2023-04-25T11:47:35;99671.69;;;6.46;81.35
80139;BME280;69467;59.842;17.604;2023-04-25T11:50:04;99676.69;;;6.59;81.24
80139;BME280;69467;59.842;17.604;2023-04-25T11:52:37;99666.38;;;6.67;80.91
80139;BME280;69467;59.842;17.604;2023-04-25T11:55:08;99673.22;;;6.69;80.31
80139;BME280;69467;59.842;17.604;2023-04-25T11:57:33;99682.19;;;6.75;80.31
80139;BME280;69467;59.842;17.604;2023-04-25T12:00:13;99675.72;;;6.81;79.87
80139;BME280;69467;59.842;17.604;2023-04-25T12:02:43;99681.41;;;6.74;80.33
80139;BME280;69467;59.842;17.604;2023-04-25T12:05:10;99676.69;;;6.59;80.67
80139;BME280;69467;59.842;17.604;2023-04-25T12:07:36;99675.59;;;6.60;81.00
80139;BME280;69467;59.842;17.604;2023-04-25T12:10:10;99673.16;;;6.64;81.28
80139;BME280;69467;59.842;17.604;2023-04-25T12:12:37;99682.72;;;6.67;81.53
80139;BME280;69467;59.842;17.604;2023-04-25T12:15:15;99682.19;;;6.75;81.69
80139;BME280;69467;59.842;17.604;2023-04-25T12:17:45;99683.28;;;6.74;81.58
80139;BME280;69467;59.842;17.604;2023-04-25T12:20:19;99678.69;;;6.74;81.93
80139;BME280;69467;59.842;17.604;2023-04-25T12:22:46;99686.00;;;6.74;81.66
80139;BME280;69467;59.842;17.604;2023-04-25T12:25:42;99688.81;;;6.47;82.71
80139;BME280;69467;59.842;17.604;2023-04-25T12:28:14;99685.75;;;6.38;83.35
80139;BME280;69467;59.842;17.604;2023-04-25T12:31:02;99676.28;;;6.45;83.32
80139;BME280;69467;59.842;17.604;2023-04-25T12:33:38;99687.78;;;6.58;82.89
80139;BME280;69467;59.842;17.604;2023-04-25T12:36:05;99687.47;;;6.49;83.84
80139;BME280;69467;59.842;17.604;2023-04-25T12:38:38;99686.31;;;6.40;84.23
80139;BME280;69467;59.842;17.604;2023-04-25T12:41:05;99684.63;;;6.34;83.92
80139;BME280;69467;59.842;17.604;2023-04-25T12:43:31;99681.69;;;6.40;83.47
80139;BME280;69467;59.842;17.604;2023-04-25T12:45:57;99683.06;;;6.43;83.31
80139;BME280;69467;59.842;17.604;2023-04-25T12:48:23;99682.59;;;6.51;83.08
80139;BME280;69467;59.842;17.604;2023-04-25T12:50:49;99677.19;;;6.56;82.78
80139;BME280;69467;59.842;17.604;2023-04-25T12:53:19;99678.84;;;6.63;83.11
80139;BME280;69467;59.842;17.604;2023-04-25T12:55:46;99689.72;;;6.57;82.83
80139;BME280;69467;59.842;17.604;2023-04-25T12:58:12;99689.19;;;6.60;82.22
80139;BME280;69467;59.842;17.604;2023-04-25T13:00:38;99685.81;;;6.48;82.18